sensor_id;sensor_type;location;lat;lon;timestamp;temperature;humidity
76996;DHT22;65929;49.062;10.338;2023-12-22T00:00:06;2.40;92.50
76996;DHT22;65929;49.062;10.338;2023-12-22T00:01:10;2.40;92.60
76996;DHT22;65929;49.062;10.338;2023-12-22T00:02:12;2.30;92.60
76996;DHT22;65929;49.062;10.338;2023-12-22T00:03:13;2.30;92.60
76996;DHT22;65929;49.062;10.338;2023-12-22T00:04:15;2.30;93.00
76996;DHT22;65929;49.062;10.338;2023-12-22T00:05:15;2.30;93.10
76996;DHT22;65929;49.062;10.338;2023-12-22T00:06:16;2.20;93.20
76996;DHT22;65929;49.062;10.338;2023-12-22T00:07:17;2.20;93.30
76996;DHT22;65929;49.062;10.338;2023-12-22T00:08:20;2.20;93.50
76996;DHT22;65929;49.062;10.338;2023-12-22T00:09:21;2.20;93.50
76996;DHT22;65929;49.062;10.338;2023-12-22T00:10:22;2.10;93.70
76996;DHT22;65929;49.062;10.338;2023-12-22T00:11:23;2.10;93.60
76996;DHT22;65929;49.062;10.338;2023-12-22T00:12:24;2.10;93.70
76996;DHT22;65929;49.062;10.338;2023-12-22T00:13:25;2.00;93.70
76996;DHT22;65929;49.062;10.338;2023-12-22T00:14:26;2.00;93.90
76996;DHT22;65929;49.062;10.338;2023-12-22T00:15:27;2.00;93.90
76996;DHT22;65929;49.062;10.338;2023-12-22T00:16:29;2.00;93.70
76996;DHT22;65929;49.062;10.338;2023-12-22T00:17:30;2.00;93.70
76996;DHT22;65929;49.062;10.338;2023-12-22T00:18:31;2.00;93.90
76996;DHT22;65929;49.062;10.338;2023-12-22T00:19:32;1.90;94.10
76996;DHT22;65929;49.062;10.338;2023-12-22T00:20:33;1.90;94.30
76996;DHT22;65929;49.062;10.338;2023-12-22T00:21:34;1.90;94.30
76996;DHT22;65929;49.062;10.338;2023-12-22T00:22:35;1.90;94.30
76996;DHT22;65929;49.062;10.338;2023-12-22T00:23:36;1.90;94.30
76996;DHT22;65929;49.062;10.338;2023-12-22T00:24:37;1.90;94.30
76996;DHT22;65929;49.062;10.338;2023-12-22T00:25:38;1.90;94.40
76996;DHT22;65929;49.062;10.338;2023-12-22T00:26:38;1.90;94.40
76996;DHT22;65929;49.062;10.338;2023-12-22T00:27:39;1.90;94.50
76996;DHT22;65929;49.062;10.338;2023-12-22T00:28:40;1.80;94.70
76996;DHT22;65929;49.062;10.338;2023-12-22T00:29:42;1.90;94.70
76996;DHT22;65929;49.062;10.338;2023-12-22T00:30:43;1.80;94.80
76996;DHT22;65929;49.062;10.338;2023-12-22T00:31:45;1.80;94.70
76996;DHT22;65929;49.062;10.338;2023-12-22T00:32:46;1.80;94.70
76996;DHT22;65929;49.062;10.338;2023-12-22T00:33:47;1.80;94.70
76996;DHT22;65929;49.062;10.338;2023-12-22T00:34:48;1.80;94.90
76996;DHT22;65929;49.062;10.338;2023-12-22T00:35:49;1.80;94.80
76996;DHT22;65929;49.062;10.338;2023-12-22T00:36:50;1.80;94.70
76996;DHT22;65929;49.062;10.338;2023-12-22T00:37:51;1.80;94.70
76996;DHT22;65929;49.062;10.338;2023-12-22T00:38:52;1.80;94.60
76996;DHT22;65929;49.062;10.338;2023-12-22T00:39:53;1.80;94.50
76996;DHT22;65929;49.062;10.338;2023-12-22T00:40:54;1.80;94.20
76996;DHT22;65929;49.062;10.338;2023-12-22T00:41:54;1.70;94.30
76996;DHT22;65929;49.062;10.338;2023-12-22T00:42:55;1.70;94.40
76996;DHT22;65929;49.062;10.338;2023-12-22T00:43:56;1.70;94.40
76996;DHT22;65929;49.062;10.338;2023-12-22T00:44:57;1.70;94.60
76996;DHT22;65929;49.062;10.338;2023-12-22T00:45:58;1.70;94.50
76996;DHT22;65929;49.062;10.338;2023-12-22T00:47:00;1.70;94.40
76996;DHT22;65929;49.062;10.338;2023-12-22T00:48:01;1.80;94.40
76996;DHT22;65929;49.062;10.338;2023-12-22T00:49:02;1.80;94.40
76996;DHT22;65929;49.062;10.338;2023-12-22T00:50:04;1.80;94.30
76996;DHT22;65929;49.062;10.338;2023-12-22T00:51:06;1.80;94.40
76996;DHT22;65929;49.062;10.338;2023-12-22T00:52:08;1.80;94.60
76996;DHT22;65929;49.062;10.338;2023-12-22T00:53:08;1.80;94.50
76996;DHT22;65929;49.062;10.338;2023-12-22T00:54:10;1.80;94.40
76996;DHT22;65929;49.062;10.338;2023-12-22T00:55:12;1.80;94.30
76996;DHT22;65929;49.062;10.338;2023-12-22T00:56:13;1.90;94.20
76996;DHT22;65929;49.062;10.338;2023-12-22T00:57:14;1.90;94.00
76996;DHT22;65929;49.062;10.338;2023-12-22T00:58:15;1.90;93.70
76996;DHT22;65929;49.062;10.338;2023-12-22T00:59:16;2.00;93.40
76996;DHT22;65929;49.062;10.338;2023-12-22T01:00:17;1.90;93.40
76996;DHT22;65929;49.062;10.338;2023-12-22T01:01:18;1.90;93.50
76996;DHT22;65929;49.062;10.338;2023-12-22T01:02:21;1.90;93.30
76996;DHT22;65929;49.062;10.338;2023-12-22T01:03:22;1.90;93.00
76996;DHT22;65929;49.062;10.338;2023-12-22T01:04:23;2.00;93.00
76996;DHT22;65929;49.062;10.338;2023-12-22T01:05:23;1.90;93.10
76996;DHT22;65929;49.062;10.338;2023-12-22T01:06:24;1.90;93.40
76996;DHT22;65929;49.062;10.338;2023-12-22T01:07:25;1.90;93.70
76996;DHT22;65929;49.062;10.338;2023-12-22T01:08:26;1.90;93.60
76996;DHT22;65929;49.062;10.338;2023-12-22T01:09:27;1.90;93.50
76996;DHT22;65929;49.062;10.338;2023-12-22T01:10:28;1.90;93.40
76996;DHT22;65929;49.062;10.338;2023-12-22T01:11:29;1.90;93.60
76996;DHT22;65929;49.062;10.338;2023-12-22T01:12:30;2.00;93.70
76996;DHT22;65929;49.062;10.338;2023-12-22T01:13:31;2.00;93.80
76996;DHT22;65929;49.062;10.338;2023-12-22T01:14:32;2.00;93.70
76996;DHT22;65929;49.062;10.338;2023-12-22T01:15:33;2.00;93.70
76996;DHT22;65929;49.062;10.338;2023-12-22T01:16:34;2.00;93.90
76996;DHT22;65929;49.062;10.338;2023-12-22T01:17:37;2.00;94.00
76996;DHT22;65929;49.062;10.338;2023-12-22T01:18:37;2.00;94.10
76996;DHT22;65929;49.062;10.338;2023-12-22T01:19:40;2.00;94.20
76996;DHT22;65929;49.062;10.338;2023-12-22T01:20:41;2.00;94.10
76996;DHT22;65929;49.062;10.338;2023-12-22T01:21:42;2.00;94.10
76996;DHT22;65929;49.062;10.338;2023-12-22T01:22:43;2.00;94.10
76996;DHT22;65929;49.062;10.338;2023-12-22T01:23:44;2.00;94.00
76996;DHT22;65929;49.062;10.338;2023-12-22T01:24:45;2.00;93.70
76996;DHT22;65929;49.062;10.338;2023-12-22T01:25:46;2.00;93.70
76996;DHT22;65929;49.062;10.338;2023-12-22T01:26:47;2.00;93.80
76996;DHT22;65929;49.062;10.338;2023-12-22T01:27:48;2.00;94.00
76996;DHT22;65929;49.062;10.338;2023-12-22T01:28:51;2.00;94.00
76996;DHT22;65929;49.062;10.338;2023-12-22T01:29:52;2.00;94.30
76996;DHT22;65929;49.062;10.338;2023-12-22T01:30:53;2.00;94.40
76996;DHT22;65929;49.062;10.338;2023-12-22T01:31:54;2.00;94.40
76996;DHT22;65929;49.062;10.338;2023-12-22T01:32:57;2.00;94.30
76996;DHT22;65929;49.062;10.338;2023-12-22T01:33:58;2.00;94.10
76996;DHT22;65929;49.062;10.338;2023-12-22T01:34:58;2.00;94.00
76996;DHT22;65929;49.062;10.338;2023-12-22T01:36:04;1.90;94.10
76996;DHT22;65929;49.062;10.338;2023-12-22T01:37:05;1.90;94.20
76996;DHT22;65929;49.062;10.338;2023-12-22T01:38:06;1.90;94.40
76996;DHT22;65929;49.062;10.338;2023-12-22T01:39:07;1.80;94.40
76996;DHT22;65929;49.062;10.338;2023-12-22T01:40:08;1.80;94.50
76996;DHT22;65929;49.062;10.338;2023-12-22T01:41:09;1.80;94.60
76996;DHT22;65929;49.062;10.338;2023-12-22T01:42:11;1.80;94.70
76996;DHT22;65929;49.062;10.338;2023-12-22T01:43:12;1.80;94.90
76996;DHT22;65929;49.062;10.338;2023-12-22T01:44:14;1.80;94.90
76996;DHT22;65929;49.062;10.338;2023-12-22T01:45:15;1.70;95.00
76996;DHT22;65929;49.062;10.338;2023-12-22T01:46:16;1.70;95.00
76996;DHT22;65929;49.062;10.338;2023-12-22T01:47:17;1.70;95.20
76996;DHT22;65929;49.062;10.338;2023-12-22T01:48:19;1.70;95.30
76996;DHT22;65929;49.062;10.338;2023-12-22T01:49:22;1.70;95.40
76996;DHT22;65929;49.062;10.338;2023-12-22T01:50:23;1.60;95.40
76996;DHT22;65929;49.062;10.338;2023-12-22T01:51:25;1.60;95.50
76996;DHT22;65929;49.062;10.338;2023-12-22T01:52:26;1.60;95.50
76996;DHT22;65929;49.062;10.338;2023-12-22T01:53:28;1.50;95.50
76996;DHT22;65929;49.062;10.338;2023-12-22T01:54:30;1.50;95.60
76996;DHT22;65929;49.062;10.338;2023-12-22T01:55:31;1.50;95.70
76996;DHT22;65929;49.062;10.338;2023-12-22T01:56:32;1.50;95.90
76996;DHT22;65929;49.062;10.338;2023-12-22T01:57:33;1.50;96.00
76996;DHT22;65929;49.062;10.338;2023-12-22T01:58:36;1.50;96.00
76996;DHT22;65929;49.062;10.338;2023-12-22T01:59:38;1.50;96.10
76996;DHT22;65929;49.062;10.338;2023-12-22T02:00:39;1.50;96.10
76996;DHT22;65929;49.062;10.338;2023-12-22T02:01:40;1.50;96.10
76996;DHT22;65929;49.062;10.338;2023-12-22T02:02:41;1.50;96.10
76996;DHT22;65929;49.062;10.338;2023-12-22T02:03:48;1.50;96.00
76996;DHT22;65929;49.062;10.338;2023-12-22T02:04:49;1.50;96.00
76996;DHT22;65929;49.062;10.338;2023-12-22T02:05:50;1.40;96.00
76996;DHT22;65929;49.062;10.338;2023-12-22T02:06:52;1.40;96.00
76996;DHT22;65929;49.062;10.338;2023-12-22T02:07:53;1.40;96.10
76996;DHT22;65929;49.062;10.338;2023-12-22T02:08:54;1.40;96.20
76996;DHT22;65929;49.062;10.338;2023-12-22T02:09:55;1.40;96.30
76996;DHT22;65929;49.062;10.338;2023-12-22T02:10:56;1.40;96.40
76996;DHT22;65929;49.062;10.338;2023-12-22T02:11:57;1.40;96.50
76996;DHT22;65929;49.062;10.338;2023-12-22T02:12:58;1.40;96.50
76996;DHT22;65929;49.062;10.338;2023-12-22T02:13:59;1.50;96.50
76996;DHT22;65929;49.062;10.338;2023-12-22T02:15:00;1.50;96.50
76996;DHT22;65929;49.062;10.338;2023-12-22T02:16:05;1.50;96.40
76996;DHT22;65929;49.062;10.338;2023-12-22T02:17:14;1.50;96.50
76996;DHT22;65929;49.062;10.338;2023-12-22T02:18:19;1.50;96.50
76996;DHT22;65929;49.062;10.338;2023-12-22T02:19:31;1.50;96.50
76996;DHT22;65929;49.062;10.338;2023-12-22T02:20:39;1.50;96.50
76996;DHT22;65929;49.062;10.338;2023-12-22T02:22:01;1.50;96.60
76996;DHT22;65929;49.062;10.338;2023-12-22T02:23:04;1.50;96.70
76996;DHT22;65929;49.062;10.338;2023-12-22T02:24:05;1.60;96.70
76996;DHT22;65929;49.062;10.338;2023-12-22T02:25:07;1.60;96.70
76996;DHT22;65929;49.062;10.338;2023-12-22T02:26:21;1.60;96.60
76996;DHT22;65929;49.062;10.338;2023-12-22T02:27:33;1.60;96.70
76996;DHT22;65929;49.062;10.338;2023-12-22T02:28:35;1.60;96.70
76996;DHT22;65929;49.062;10.338;2023-12-22T02:29:40;1.70;96.60
76996;DHT22;65929;49.062;10.338;2023-12-22T02:30:52;1.70;96.40
76996;DHT22;65929;49.062;10.338;2023-12-22T02:31:56;1.80;96.30
76996;DHT22;65929;49.062;10.338;2023-12-22T02:33:01;1.80;96.10
76996;DHT22;65929;49.062;10.338;2023-12-22T02:34:07;1.80;96.00
76996;DHT22;65929;49.062;10.338;2023-12-22T02:35:11;1.90;95.90
76996;DHT22;65929;49.062;10.338;2023-12-22T02:36:15;2.00;95.70
76996;DHT22;65929;49.062;10.338;2023-12-22T02:37:18;2.00;95.50
76996;DHT22;65929;49.062;10.338;2023-12-22T02:38:21;2.00;95.50
76996;DHT22;65929;49.062;10.338;2023-12-22T02:39:23;2.00;95.40
76996;DHT22;65929;49.062;10.338;2023-12-22T02:40:24;2.10;95.40
76996;DHT22;65929;49.062;10.338;2023-12-22T02:41:26;2.10;95.40
76996;DHT22;65929;49.062;10.338;2023-12-22T02:42:27;2.10;95.40
76996;DHT22;65929;49.062;10.338;2023-12-22T02:43:31;2.10;95.40
76996;DHT22;65929;49.062;10.338;2023-12-22T02:44:32;2.10;95.50
76996;DHT22;65929;49.062;10.338;2023-12-22T02:45:33;2.20;95.60
76996;DHT22;65929;49.062;10.338;2023-12-22T02:46:35;2.20;95.70
76996;DHT22;65929;49.062;10.338;2023-12-22T02:47:36;2.20;95.70
76996;DHT22;65929;49.062;10.338;2023-12-22T02:48:36;2.20;95.70
76996;DHT22;65929;49.062;10.338;2023-12-22T02:49:37;2.20;95.80
76996;DHT22;65929;49.062;10.338;2023-12-22T02:50:38;2.30;95.80
76996;DHT22;65929;49.062;10.338;2023-12-22T02:51:39;2.30;95.80
76996;DHT22;65929;49.062;10.338;2023-12-22T02:52:40;2.40;95.70
76996;DHT22;65929;49.062;10.338;2023-12-22T02:53:42;2.40;95.70
76996;DHT22;65929;49.062;10.338;2023-12-22T02:54:43;2.50;95.70
76996;DHT22;65929;49.062;10.338;2023-12-22T02:55:44;2.50;95.60
76996;DHT22;65929;49.062;10.338;2023-12-22T02:56:46;2.50;95.70
76996;DHT22;65929;49.062;10.338;2023-12-22T02:57:46;2.50;95.70
76996;DHT22;65929;49.062;10.338;2023-12-22T02:58:47;2.50;95.70
76996;DHT22;65929;49.062;10.338;2023-12-22T02:59:48;2.50;95.70
76996;DHT22;65929;49.062;10.338;2023-12-22T03:00:49;2.50;95.80
76996;DHT22;65929;49.062;10.338;2023-12-22T03:01:50;2.50;95.80
76996;DHT22;65929;49.062;10.338;2023-12-22T03:02:51;2.50;95.90
76996;DHT22;65929;49.062;10.338;2023-12-22T03:03:52;2.60;95.90
76996;DHT22;65929;49.062;10.338;2023-12-22T03:04:53;2.60;95.90
76996;DHT22;65929;49.062;10.338;2023-12-22T03:05:54;2.70;95.80
76996;DHT22;65929;49.062;10.338;2023-12-22T03:06:55;2.80;95.40
76996;DHT22;65929;49.062;10.338;2023-12-22T03:07:55;2.80;95.10
76996;DHT22;65929;49.062;10.338;2023-12-22T03:08:58;2.80;95.00
76996;DHT22;65929;49.062;10.338;2023-12-22T03:09:58;2.90;94.80
76996;DHT22;65929;49.062;10.338;2023-12-22T03:10:59;2.90;94.40
76996;DHT22;65929;49.062;10.338;2023-12-22T03:12:00;2.90;94.40
76996;DHT22;65929;49.062;10.338;2023-12-22T03:13:04;2.90;94.40
76996;DHT22;65929;49.062;10.338;2023-12-22T03:14:05;2.90;94.40
76996;DHT22;65929;49.062;10.338;2023-12-22T03:15:07;2.90;94.30
76996;DHT22;65929;49.062;10.338;2023-12-22T03:16:08;2.90;94.30
76996;DHT22;65929;49.062;10.338;2023-12-22T03:17:09;2.90;94.40
76996;DHT22;65929;49.062;10.338;2023-12-22T03:18:11;3.00;94.40
76996;DHT22;65929;49.062;10.338;2023-12-22T03:19:12;3.00;94.40
76996;DHT22;65929;49.062;10.338;2023-12-22T03:20:13;3.00;94.40
76996;DHT22;65929;49.062;10.338;2023-12-22T03:21:16;3.00;94.50
76996;DHT22;65929;49.062;10.338;2023-12-22T03:22:19;3.10;94.40
76996;DHT22;65929;49.062;10.338;2023-12-22T03:23:20;3.10;94.40
76996;DHT22;65929;49.062;10.338;2023-12-22T03:24:22;3.10;94.40
76996;DHT22;65929;49.062;10.338;2023-12-22T03:25:23;3.10;94.50
76996;DHT22;65929;49.062;10.338;2023-12-22T03:26:26;3.10;94.70
76996;DHT22;65929;49.062;10.338;2023-12-22T03:27:28;3.10;94.60
76996;DHT22;65929;49.062;10.338;2023-12-22T03:28:29;3.10;94.70
76996;DHT22;65929;49.062;10.338;2023-12-22T03:29:30;3.10;94.90
76996;DHT22;65929;49.062;10.338;2023-12-22T03:30:31;3.10;94.80
76996;DHT22;65929;49.062;10.338;2023-12-22T03:31:31;3.20;94.80
76996;DHT22;65929;49.062;10.338;2023-12-22T03:32:32;3.30;94.60
76996;DHT22;65929;49.062;10.338;2023-12-22T03:33:33;3.30;94.40
76996;DHT22;65929;49.062;10.338;2023-12-22T03:34:34;3.30;94.40
76996;DHT22;65929;49.062;10.338;2023-12-22T03:35:35;3.30;94.50
76996;DHT22;65929;49.062;10.338;2023-12-22T03:36:36;3.30;94.60
76996;DHT22;65929;49.062;10.338;2023-12-22T03:37:37;3.30;94.70
76996;DHT22;65929;49.062;10.338;2023-12-22T03:38:38;3.30;94.80
76996;DHT22;65929;49.062;10.338;2023-12-22T03:39:40;3.30;94.90
76996;DHT22;65929;49.062;10.338;2023-12-22T03:40:41;3.10;93.70
76996;DHT22;65929;49.062;10.338;2023-12-22T03:41:42;2.70;91.60
76996;DHT22;65929;49.062;10.338;2023-12-22T03:42:43;2.20;91.70
76996;DHT22;65929;49.062;10.338;2023-12-22T03:43:44;1.90;92.80
76996;DHT22;65929;49.062;10.338;2023-12-22T03:44:44;1.70;93.60
76996;DHT22;65929;49.062;10.338;2023-12-22T03:45:45;1.60;94.10
76996;DHT22;65929;49.062;10.338;2023-12-22T03:46:46;1.50;94.60
76996;DHT22;65929;49.062;10.338;2023-12-22T03:47:47;1.40;94.90
76996;DHT22;65929;49.062;10.338;2023-12-22T03:48:48;1.40;95.40
76996;DHT22;65929;49.062;10.338;2023-12-22T03:49:49;1.40;95.70
76996;DHT22;65929;49.062;10.338;2023-12-22T03:50:50;1.40;95.90
76996;DHT22;65929;49.062;10.338;2023-12-22T03:51:51;1.40;96.20
76996;DHT22;65929;49.062;10.338;2023-12-22T03:52:52;1.50;96.30
76996;DHT22;65929;49.062;10.338;2023-12-22T03:53:53;1.60;96.30
76996;DHT22;65929;49.062;10.338;2023-12-22T03:54:55;1.60;96.20
76996;DHT22;65929;49.062;10.338;2023-12-22T03:55:56;1.70;96.30
76996;DHT22;65929;49.062;10.338;2023-12-22T03:56:57;1.80;96.20
76996;DHT22;65929;49.062;10.338;2023-12-22T03:57:58;1.80;96.20
76996;DHT22;65929;49.062;10.338;2023-12-22T03:58:59;1.80;96.20
76996;DHT22;65929;49.062;10.338;2023-12-22T03:59:59;1.80;96.10
76996;DHT22;65929;49.062;10.338;2023-12-22T04:01:00;1.90;96.10
76996;DHT22;65929;49.062;10.338;2023-12-22T04:02:01;1.90;95.90
76996;DHT22;65929;49.062;10.338;2023-12-22T04:03:03;1.90;95.80
76996;DHT22;65929;49.062;10.338;2023-12-22T04:04:04;1.90;95.70
76996;DHT22;65929;49.062;10.338;2023-12-22T04:05:05;2.00;95.60
76996;DHT22;65929;49.062;10.338;2023-12-22T04:06:06;2.00;95.50
76996;DHT22;65929;49.062;10.338;2023-12-22T04:07:07;2.00;95.50
76996;DHT22;65929;49.062;10.338;2023-12-22T04:08:08;2.00;95.40
76996;DHT22;65929;49.062;10.338;2023-12-22T04:09:09;2.00;95.50
76996;DHT22;65929;49.062;10.338;2023-12-22T04:10:11;2.00;95.50
76996;DHT22;65929;49.062;10.338;2023-12-22T04:11:12;2.00;95.40
76996;DHT22;65929;49.062;10.338;2023-12-22T04:12:13;2.00;95.30
76996;DHT22;65929;49.062;10.338;2023-12-22T04:13:14;2.00;95.20
76996;DHT22;65929;49.062;10.338;2023-12-22T04:14:15;2.00;95.20
76996;DHT22;65929;49.062;10.338;2023-12-22T04:15:17;2.10;95.20
76996;DHT22;65929;49.062;10.338;2023-12-22T04:16:18;2.10;95.30
76996;DHT22;65929;49.062;10.338;2023-12-22T04:17:19;2.10;95.30
76996;DHT22;65929;49.062;10.338;2023-12-22T04:18:19;2.10;95.20
76996;DHT22;65929;49.062;10.338;2023-12-22T04:19:20;2.10;95.10
76996;DHT22;65929;49.062;10.338;2023-12-22T04:20:21;2.10;95.20
76996;DHT22;65929;49.062;10.338;2023-12-22T04:21:22;2.10;95.20
76996;DHT22;65929;49.062;10.338;2023-12-22T04:22:23;2.10;95.30
76996;DHT22;65929;49.062;10.338;2023-12-22T04:23:24;2.10;95.40
76996;DHT22;65929;49.062;10.338;2023-12-22T04:24:25;2.10;95.40
76996;DHT22;65929;49.062;10.338;2023-12-22T04:25:27;2.20;95.30
76996;DHT22;65929;49.062;10.338;2023-12-22T04:26:28;2.20;95.30
76996;DHT22;65929;49.062;10.338;2023-12-22T04:27:29;2.20;95.30
76996;DHT22;65929;49.062;10.338;2023-12-22T04:28:30;2.20;95.30
76996;DHT22;65929;49.062;10.338;2023-12-22T04:29:31;2.20;95.40
76996;DHT22;65929;49.062;10.338;2023-12-22T04:30:32;2.20;95.50
76996;DHT22;65929;49.062;10.338;2023-12-22T04:31:33;2.30;95.50
76996;DHT22;65929;49.062;10.338;2023-12-22T04:32:34;2.30;95.50
76996;DHT22;65929;49.062;10.338;2023-12-22T04:33:35;2.30;95.50
76996;DHT22;65929;49.062;10.338;2023-12-22T04:34:35;2.30;95.40
76996;DHT22;65929;49.062;10.338;2023-12-22T04:35:36;2.30;95.40
76996;DHT22;65929;49.062;10.338;2023-12-22T04:36:37;2.30;95.40
76996;DHT22;65929;49.062;10.338;2023-12-22T04:37:38;2.30;95.50
76996;DHT22;65929;49.062;10.338;2023-12-22T04:38:39;2.30;95.70
76996;DHT22;65929;49.062;10.338;2023-12-22T04:39:41;2.30;95.70
76996;DHT22;65929;49.062;10.338;2023-12-22T04:40:43;2.30;95.80
76996;DHT22;65929;49.062;10.338;2023-12-22T04:41:44;2.40;95.80
76996;DHT22;65929;49.062;10.338;2023-12-22T04:42:45;2.40;95.80
76996;DHT22;65929;49.062;10.338;2023-12-22T04:43:46;2.40;95.70
76996;DHT22;65929;49.062;10.338;2023-12-22T04:44:47;2.40;95.70
76996;DHT22;65929;49.062;10.338;2023-12-22T04:45:48;2.40;95.70
76996;DHT22;65929;49.062;10.338;2023-12-22T04:46:49;2.50;95.70
76996;DHT22;65929;49.062;10.338;2023-12-22T04:47:50;2.50;95.70
76996;DHT22;65929;49.062;10.338;2023-12-22T04:48:50;2.50;95.80
76996;DHT22;65929;49.062;10.338;2023-12-22T04:49:51;2.50;95.80
76996;DHT22;65929;49.062;10.338;2023-12-22T04:50:52;2.50;95.90
76996;DHT22;65929;49.062;10.338;2023-12-22T04:51:53;2.50;96.00
76996;DHT22;65929;49.062;10.338;2023-12-22T04:52:54;2.50;95.80
76996;DHT22;65929;49.062;10.338;2023-12-22T04:53:55;2.70;95.50
76996;DHT22;65929;49.062;10.338;2023-12-22T04:54:56;2.60;95.30
76996;DHT22;65929;49.062;10.338;2023-12-22T04:55:58;2.70;95.10
76996;DHT22;65929;49.062;10.338;2023-12-22T04:56:59;2.70;94.40
76996;DHT22;65929;49.062;10.338;2023-12-22T04:58:00;2.70;93.70
76996;DHT22;65929;49.062;10.338;2023-12-22T04:59:01;2.70;93.20
76996;DHT22;65929;49.062;10.338;2023-12-22T05:00:02;2.70;92.70
76996;DHT22;65929;49.062;10.338;2023-12-22T05:01:03;2.80;92.50
76996;DHT22;65929;49.062;10.338;2023-12-22T05:02:04;2.70;93.00
76996;DHT22;65929;49.062;10.338;2023-12-22T05:03:05;2.60;92.60
76996;DHT22;65929;49.062;10.338;2023-12-22T05:04:06;2.50;92.60
76996;DHT22;65929;49.062;10.338;2023-12-22T05:05:07;2.50;92.90
76996;DHT22;65929;49.062;10.338;2023-12-22T05:06:08;2.50;93.60
76996;DHT22;65929;49.062;10.338;2023-12-22T05:07:09;2.40;93.80
76996;DHT22;65929;49.062;10.338;2023-12-22T05:08:11;2.50;93.70
76996;DHT22;65929;49.062;10.338;2023-12-22T05:09:12;2.50;93.70
76996;DHT22;65929;49.062;10.338;2023-12-22T05:10:13;2.50;94.00
76996;DHT22;65929;49.062;10.338;2023-12-22T05:11:15;2.50;94.00
76996;DHT22;65929;49.062;10.338;2023-12-22T05:12:16;2.50;94.00
76996;DHT22;65929;49.062;10.338;2023-12-22T05:13:17;2.40;94.20
76996;DHT22;65929;49.062;10.338;2023-12-22T05:14:18;2.50;94.30
76996;DHT22;65929;49.062;10.338;2023-12-22T05:15:18;2.40;94.40
76996;DHT22;65929;49.062;10.338;2023-12-22T05:16:19;2.50;94.30
76996;DHT22;65929;49.062;10.338;2023-12-22T05:17:20;2.50;94.10
76996;DHT22;65929;49.062;10.338;2023-12-22T05:18:21;2.50;94.20
76996;DHT22;65929;49.062;10.338;2023-12-22T05:19:22;2.50;94.30
76996;DHT22;65929;49.062;10.338;2023-12-22T05:20:23;2.50;94.40
76996;DHT22;65929;49.062;10.338;2023-12-22T05:21:23;2.60;94.10
76996;DHT22;65929;49.062;10.338;2023-12-22T05:22:24;2.70;93.90
76996;DHT22;65929;49.062;10.338;2023-12-22T05:23:26;2.60;94.10
76996;DHT22;65929;49.062;10.338;2023-12-22T05:24:27;2.60;94.10
76996;DHT22;65929;49.062;10.338;2023-12-22T05:25:28;2.50;93.90
76996;DHT22;65929;49.062;10.338;2023-12-22T05:26:31;2.50;93.90
76996;DHT22;65929;49.062;10.338;2023-12-22T05:27:32;2.50;94.10
76996;DHT22;65929;49.062;10.338;2023-12-22T05:28:33;2.50;94.30
76996;DHT22;65929;49.062;10.338;2023-12-22T05:29:34;2.40;94.20
76996;DHT22;65929;49.062;10.338;2023-12-22T05:30:35;2.40;93.70
76996;DHT22;65929;49.062;10.338;2023-12-22T05:31:37;2.40;94.00
76996;DHT22;65929;49.062;10.338;2023-12-22T05:32:38;2.30;94.30
76996;DHT22;65929;49.062;10.338;2023-12-22T05:33:39;2.30;94.60
76996;DHT22;65929;49.062;10.338;2023-12-22T05:34:40;2.20;94.60
76996;DHT22;65929;49.062;10.338;2023-12-22T05:35:41;2.20;94.80
76996;DHT22;65929;49.062;10.338;2023-12-22T05:36:42;2.20;94.50
76996;DHT22;65929;49.062;10.338;2023-12-22T05:37:43;2.20;94.50
76996;DHT22;65929;49.062;10.338;2023-12-22T05:38:44;2.20;94.70
76996;DHT22;65929;49.062;10.338;2023-12-22T05:39:45;2.20;94.80
76996;DHT22;65929;49.062;10.338;2023-12-22T05:40:46;2.20;94.70
76996;DHT22;65929;49.062;10.338;2023-12-22T05:41:50;2.20;94.70
76996;DHT22;65929;49.062;10.338;2023-12-22T05:42:51;2.30;94.70
76996;DHT22;65929;49.062;10.338;2023-12-22T05:43:51;2.30;94.80
76996;DHT22;65929;49.062;10.338;2023-12-22T05:44:53;2.30;94.80
76996;DHT22;65929;49.062;10.338;2023-12-22T05:45:54;2.40;94.60
76996;DHT22;65929;49.062;10.338;2023-12-22T05:46:55;2.40;94.50
76996;DHT22;65929;49.062;10.338;2023-12-22T05:47:55;2.40;94.70
76996;DHT22;65929;49.062;10.338;2023-12-22T05:48:56;2.40;94.50
76996;DHT22;65929;49.062;10.338;2023-12-22T05:49:59;2.50;94.40
76996;DHT22;65929;49.062;10.338;2023-12-22T05:51:01;2.50;94.30
76996;DHT22;65929;49.062;10.338;2023-12-22T05:52:04;2.50;94.10
76996;DHT22;65929;49.062;10.338;2023-12-22T05:53:04;2.50;94.00
76996;DHT22;65929;49.062;10.338;2023-12-22T05:54:06;2.60;94.10
76996;DHT22;65929;49.062;10.338;2023-12-22T05:55:08;2.60;94.30
76996;DHT22;65929;49.062;10.338;2023-12-22T05:56:18;2.70;94.30
76996;DHT22;65929;49.062;10.338;2023-12-22T05:57:21;2.70;94.50
76996;DHT22;65929;49.062;10.338;2023-12-22T05:58:22;2.70;94.60
76996;DHT22;65929;49.062;10.338;2023-12-22T05:59:23;2.60;94.60
76996;DHT22;65929;49.062;10.338;2023-12-22T06:00:23;2.70;94.70
76996;DHT22;65929;49.062;10.338;2023-12-22T06:01:24;2.60;94.90
76996;DHT22;65929;49.062;10.338;2023-12-22T06:02:25;2.60;94.90
76996;DHT22;65929;49.062;10.338;2023-12-22T06:03:26;2.60;94.80
76996;DHT22;65929;49.062;10.338;2023-12-22T06:04:32;2.60;94.60
76996;DHT22;65929;49.062;10.338;2023-12-22T06:05:33;2.60;94.60
76996;DHT22;65929;49.062;10.338;2023-12-22T06:06:35;2.70;94.70
76996;DHT22;65929;49.062;10.338;2023-12-22T06:07:37;2.60;94.60
76996;DHT22;65929;49.062;10.338;2023-12-22T06:08:37;2.60;94.70
76996;DHT22;65929;49.062;10.338;2023-12-22T06:09:39;2.70;94.70
76996;DHT22;65929;49.062;10.338;2023-12-22T06:10:40;2.70;94.70
76996;DHT22;65929;49.062;10.338;2023-12-22T06:11:41;2.70;94.80
76996;DHT22;65929;49.062;10.338;2023-12-22T06:12:43;2.70;94.70
76996;DHT22;65929;49.062;10.338;2023-12-22T06:13:44;2.70;94.70
76996;DHT22;65929;49.062;10.338;2023-12-22T06:14:45;2.70;94.80
76996;DHT22;65929;49.062;10.338;2023-12-22T06:15:46;2.70;94.90
76996;DHT22;65929;49.062;10.338;2023-12-22T06:16:47;2.80;94.80
76996;DHT22;65929;49.062;10.338;2023-12-22T06:17:48;2.80;94.90
76996;DHT22;65929;49.062;10.338;2023-12-22T06:18:48;2.80;94.90
76996;DHT22;65929;49.062;10.338;2023-12-22T06:19:49;2.80;95.00
76996;DHT22;65929;49.062;10.338;2023-12-22T06:20:50;2.90;95.10
76996;DHT22;65929;49.062;10.338;2023-12-22T06:21:51;2.90;95.20
76996;DHT22;65929;49.062;10.338;2023-12-22T06:22:52;2.90;95.30
76996;DHT22;65929;49.062;10.338;2023-12-22T06:23:53;2.90;95.40
76996;DHT22;65929;49.062;10.338;2023-12-22T06:24:54;2.90;95.40
76996;DHT22;65929;49.062;10.338;2023-12-22T06:25:55;2.90;95.50
76996;DHT22;65929;49.062;10.338;2023-12-22T06:26:55;2.90;95.50
76996;DHT22;65929;49.062;10.338;2023-12-22T06:27:58;3.00;95.50